createdAt,value
2017-10-07T00:01:05.115Z,101451.88
2017-10-07T00:03:36.295Z,101454.77
2017-10-07T00:06:07.385Z,101459.36
2017-10-07T00:08:38.766Z,101457.03
2017-10-07T00:11:09.866Z,101462.14
2017-10-07T00:13:41.441Z,101461.19
2017-10-07T00:16:12.540Z,101458.86
2017-10-07T00:18:43.598Z,101449.95
2017-10-07T00:21:15.102Z,101457.67
2017-10-07T00:23:46.224Z,101456.15
2017-10-07T00:26:17.311Z,101456.42
2017-10-07T00:28:48.785Z,101453.23
2017-10-07T00:31:19.907Z,101453.16
2017-10-07T00:33:51.008Z,101449.73
2017-10-07T00:36:23.690Z,101441.52
2017-10-07T00:38:54.935Z,101445.99
2017-10-07T00:41:26.705Z,101451.69
2017-10-07T00:43:58.087Z,101456.52
2017-10-07T00:46:29.158Z,101458.17
2017-10-07T00:49:00.900Z,101456.35
2017-10-07T00:51:32.097Z,101457.23
2017-10-07T00:54:04.163Z,101465.09
2017-10-07T00:56:35.647Z,101465.48
2017-10-07T00:59:06.779Z,101462.78
2017-10-07T01:01:37.956Z,101454.40
2017-10-07T01:04:09.437Z,101452.81
2017-10-07T01:06:40.531Z,101449.05
2017-10-07T01:09:12.036Z,101447.80
2017-10-07T01:11:43.843Z,101447.45
2017-10-07T01:14:15.265Z,101442.12
2017-10-07T01:16:46.312Z,101445.17
2017-10-07T01:19:17.952Z,101447.32
2017-10-07T01:21:49.162Z,101449.95
2017-10-07T01:24:20.465Z,101450.81
2017-10-07T01:26:52.956Z,101449.87
2017-10-07T01:29:26.625Z,101442.85
2017-10-07T01:31:58.185Z,101438.89
2017-10-07T01:34:30.877Z,101440.99
2017-10-07T01:37:02.292Z,101442.66
2017-10-07T01:39:33.417Z,101442.06
2017-10-07T01:42:09.527Z,101440.22
2017-10-07T01:44:40.930Z,101430.66
2017-10-07T01:47:12.515Z,101432.08
2017-10-07T01:49:43.861Z,101420.50
2017-10-07T01:52:15.954Z,101419.72
2017-10-07T01:54:47.663Z,101419.80
2017-10-07T01:57:18.752Z,101413.25
2017-10-07T01:59:49.833Z,101412.88
2017-10-07T02:02:21.808Z,101410.73
2017-10-07T02:04:52.941Z,101411.53
2017-10-07T02:07:26.008Z,101408.84
2017-10-07T02:09:57.085Z,101403.16
2017-10-07T02:12:28.357Z,101410.09
2017-10-07T02:14:59.946Z,101410.08
2017-10-07T02:17:31.027Z,101410.88
2017-10-07T02:20:03.771Z,101399.42
2017-10-07T02:22:35.129Z,101405.94
2017-10-07T02:25:06.201Z,101399.75
2017-10-07T02:27:37.271Z,101401.47
2017-10-07T02:30:08.792Z,101396.08
2017-10-07T02:32:39.858Z,101399.05
2017-10-07T02:35:11.050Z,101393.00
2017-10-07T02:37:42.618Z,101393.53
2017-10-07T02:40:13.755Z,101393.58
2017-10-07T02:42:44.820Z,101396.30
2017-10-07T02:45:16.269Z,101391.10
2017-10-07T02:47:47.328Z,101391.98
2017-10-07T02:50:18.479Z,101381.61
2017-10-07T02:52:49.904Z,101383.00
2017-10-07T02:55:21.191Z,101387.46
2017-10-07T02:57:52.271Z,101388.81
2017-10-07T03:00:25.266Z,101390.54
2017-10-07T03:02:56.337Z,101386.16
2017-10-07T03:05:28.194Z,101377.90
2017-10-07T03:07:59.379Z,101383.61
2017-10-07T03:10:30.582Z,101386.23
2017-10-07T03:13:02.303Z,101384.85
2017-10-07T03:15:33.416Z,101389.67
2017-10-07T03:18:06.501Z,101387.97
2017-10-07T03:20:37.922Z,101382.75
2017-10-07T03:23:18.183Z,101381.52
2017-10-07T03:25:50.297Z,101384.15
2017-10-07T03:28:21.779Z,101383.31
2017-10-07T03:30:52.926Z,101374.56
2017-10-07T03:33:25.770Z,101377.65
2017-10-07T03:35:56.887Z,101384.73
2017-10-07T03:38:28.457Z,101387.79
2017-10-07T03:41:00.080Z,101382.16
2017-10-07T03:43:31.267Z,101389.62
2017-10-07T03:46:03.513Z,101390.56
2017-10-07T03:48:34.810Z,101390.56
2017-10-07T03:51:06.002Z,101389.10
2017-10-07T03:53:37.465Z,101388.23
2017-10-07T03:56:08.585Z,101396.12
2017-10-07T03:58:39.716Z,101387.80
2017-10-07T04:01:11.131Z,101386.99
2017-10-07T04:03:42.247Z,101387.48
2017-10-07T04:06:13.318Z,101390.03
2017-10-07T04:08:44.722Z,101396.98
2017-10-07T04:11:15.791Z,101393.03
2017-10-07T04:13:46.898Z,101393.06
2017-10-07T04:16:18.297Z,101393.05
2017-10-07T04:18:49.397Z,101391.52
2017-10-07T04:21:20.491Z,101391.66
2017-10-07T04:23:51.607Z,101392.70
2017-10-07T04:26:23.854Z,101394.55
2017-10-07T04:28:55.079Z,101395.64
2017-10-07T04:31:27.718Z,101398.42
2017-10-07T04:33:58.812Z,101395.43
2017-10-07T04:36:29.906Z,101401.20
2017-10-07T04:39:01.218Z,101398.69
2017-10-07T04:41:32.584Z,101394.48
2017-10-07T04:44:04.520Z,101392.36
2017-10-07T04:46:35.675Z,101395.16
2017-10-07T04:49:06.806Z,101388.59
2017-10-07T04:51:38.212Z,101385.95
2017-10-07T04:54:09.477Z,101385.45
2017-10-07T04:56:40.827Z,101388.53
2017-10-07T04:59:11.957Z,101390.15
2017-10-07T05:01:43.080Z,101386.53
2017-10-07T05:04:14.463Z,101390.30
2017-10-07T05:06:45.545Z,101390.88
2017-10-07T05:09:16.752Z,101380.09
2017-10-07T05:11:48.631Z,101389.47
2017-10-07T05:14:19.712Z,101383.08
2017-10-07T05:16:50.826Z,101381.08
2017-10-07T05:19:22.962Z,101384.34
2017-10-07T05:21:54.381Z,101388.34
2017-10-07T05:24:27.495Z,101388.03
2017-10-07T05:26:58.714Z,101388.91
2017-10-07T05:29:29.815Z,101388.09
2017-10-07T05:32:03.134Z,101384.72
2017-10-07T05:34:34.243Z,101389.16
2017-10-07T05:37:05.323Z,101392.32
2017-10-07T05:39:36.684Z,101387.97
2017-10-07T05:42:08.658Z,101383.16
2017-10-07T05:44:39.723Z,101381.91
2017-10-07T05:47:11.130Z,101384.11
2017-10-07T05:49:42.207Z,101387.64
2017-10-07T05:52:13.449Z,101384.17
2017-10-07T05:54:44.903Z,101386.36
2017-10-07T05:57:16.087Z,101383.73
2017-10-07T05:59:47.199Z,101392.02
2017-10-07T06:02:18.607Z,101381.53
2017-10-07T06:04:49.710Z,101392.81
2017-10-07T06:07:20.990Z,101397.50
2017-10-07T06:09:52.420Z,101397.00
2017-10-07T06:12:24.564Z,101400.69
2017-10-07T06:14:55.955Z,101404.73
2017-10-07T06:17:27.944Z,101399.66
2017-10-07T06:19:59.196Z,101401.55
2017-10-07T06:22:30.895Z,101404.41
2017-10-07T06:25:02.270Z,101404.67
2017-10-07T06:27:33.368Z,101405.84
2017-10-07T06:30:05.882Z,101405.44
2017-10-07T06:32:37.012Z,101409.25
2017-10-07T06:35:08.365Z,101418.83
2017-10-07T06:37:39.512Z,101413.52
2017-10-07T06:40:10.651Z,101412.41
2017-10-07T06:42:42.054Z,101420.00
2017-10-07T06:45:13.212Z,101423.22
2017-10-07T06:47:44.339Z,101418.61
2017-10-07T06:50:15.782Z,101421.59
2017-10-07T06:52:47.054Z,101422.84
2017-10-07T06:55:18.156Z,101413.80
2017-10-07T06:57:49.558Z,101408.09
2017-10-07T07:00:20.665Z,101419.72
2017-10-07T07:02:52.702Z,101419.70
2017-10-07T07:05:24.961Z,101416.34
2017-10-07T07:07:56.131Z,101427.01
2017-10-07T07:10:29.098Z,101422.05
2017-10-07T07:13:00.186Z,101419.40
2017-10-07T07:15:31.779Z,101417.06
2017-10-07T07:18:04.235Z,101415.97
2017-10-07T07:20:35.794Z,101414.82
2017-10-07T07:23:10.209Z,101414.98
2017-10-07T07:25:59.975Z,101407.08
2017-10-07T07:28:41.414Z,101404.45
2017-10-07T07:31:13.669Z,101407.28
2017-10-07T07:33:45.362Z,101399.80
2017-10-07T07:36:24.058Z,101397.33
2017-10-07T07:39:15.560Z,101402.33
2017-10-07T07:41:56.370Z,101397.25
2017-10-07T07:44:29.869Z,101402.37
2017-10-07T07:47:05.491Z,101400.16
2017-10-07T07:49:36.983Z,101401.33
2017-10-07T07:52:11.701Z,101395.00
2017-10-07T07:54:48.935Z,101377.44
2017-10-07T07:57:28.882Z,101377.13
2017-10-07T08:00:00.133Z,101369.61
2017-10-07T08:05:46.861Z,101354.79
2017-10-07T08:08:18.987Z,101355.28
2017-10-07T08:12:20.796Z,101355.23
2017-10-07T08:14:52.575Z,101362.00
2017-10-07T08:21:11.786Z,101343.53
2017-10-07T08:23:56.054Z,101346.66
2017-10-07T08:26:28.538Z,101358.26
2017-10-07T08:28:59.655Z,101368.11
2017-10-07T08:31:31.255Z,101372.57
2017-10-07T08:34:06.327Z,101368.63
2017-10-07T08:36:40.544Z,101367.03
2017-10-07T08:39:12.755Z,101369.63
2017-10-07T08:41:45.024Z,101368.09
2017-10-07T08:44:20.437Z,101361.05
2017-10-07T08:46:52.213Z,101364.22
2017-10-07T08:49:25.090Z,101366.42
2017-10-07T08:51:57.353Z,101364.48
2017-10-07T08:54:29.178Z,101382.20
2017-10-07T08:57:00.359Z,101378.33
2017-10-07T08:59:32.755Z,101365.44
2017-10-07T09:02:04.780Z,101356.45
2017-10-07T09:04:35.881Z,101361.88
2017-10-07T09:07:07.266Z,101365.70
2017-10-07T09:09:38.401Z,101355.55
2017-10-07T09:12:09.563Z,101355.52
2017-10-07T09:14:40.675Z,101344.77
2017-10-07T09:17:11.758Z,101341.23
2017-10-07T09:19:42.836Z,101339.52
2017-10-07T09:22:14.013Z,101341.50
2017-10-07T09:24:45.388Z,101342.28
2017-10-07T09:27:16.471Z,101348.91
2017-10-07T09:29:47.638Z,101341.84
2017-10-07T09:32:19.055Z,101339.33
2017-10-07T09:34:50.452Z,101344.63
2017-10-07T09:37:21.687Z,101345.25
2017-10-07T09:39:52.885Z,101338.52
2017-10-07T09:42:24.676Z,101338.96
2017-10-07T09:44:56.302Z,101335.75
2017-10-07T09:47:28.262Z,101326.11
2017-10-07T09:49:59.320Z,101337.89
2017-10-07T09:52:30.521Z,101326.21
2017-10-07T09:55:01.738Z,101322.64
2017-10-07T09:57:33.157Z,101329.55
2017-10-07T10:00:05.346Z,101330.23
2017-10-07T10:02:36.399Z,101327.63
2017-10-07T10:05:07.655Z,101317.59
2017-10-07T10:07:38.882Z,101306.44
2017-10-07T10:10:10.372Z,101313.48
2017-10-07T10:12:41.591Z,101307.67
2017-10-07T10:15:12.641Z,101300.40
2017-10-07T10:17:44.092Z,101299.68
2017-10-07T10:20:15.160Z,101296.59
2017-10-07T10:22:48.207Z,101288.71
2017-10-07T10:25:19.380Z,101286.98
2017-10-07T10:27:55.832Z,101279.53
2017-10-07T10:30:27.939Z,101263.08
2017-10-07T10:33:00.395Z,101266.64
2017-10-07T10:35:33.076Z,101251.93
2017-10-07T10:38:06.825Z,101245.81
2017-10-07T10:40:39.481Z,101240.87
2017-10-07T10:45:42.693Z,101221.75
2017-10-07T10:48:14.205Z,101233.08
2017-10-07T10:50:49.872Z,101226.69
2017-10-07T10:53:25.543Z,101217.36
2017-10-07T10:55:56.988Z,101232.78
2017-10-07T10:58:31.327Z,101219.42
2017-10-07T11:01:25.583Z,101209.77
2017-10-07T11:03:57.698Z,101203.92
2017-10-07T11:06:35.302Z,101200.66
2017-10-07T11:09:10.071Z,101199.03
2017-10-07T11:11:42.554Z,101205.53
2017-10-07T11:14:15.401Z,101204.02
2017-10-07T11:16:46.944Z,101196.80
2017-10-07T11:19:20.337Z,101202.11
2017-10-07T11:21:57.346Z,101176.08
2017-10-07T11:24:32.497Z,101180.69
2017-10-07T11:27:04.951Z,101154.97
2017-10-07T11:29:36.362Z,101134.08
2017-10-07T11:32:07.450Z,101115.22
2017-10-07T11:34:39.662Z,101121.77
2017-10-07T11:37:11.478Z,101119.34
2017-10-07T11:39:43.132Z,101112.43
2017-10-07T11:42:14.331Z,101119.78
2017-10-07T11:44:49.450Z,101105.58
2017-10-07T11:47:21.011Z,101100.45
2017-10-07T11:49:52.274Z,101091.44
2017-10-07T11:52:24.264Z,101092.47
2017-10-07T11:54:55.569Z,101101.33
2017-10-07T11:57:28.723Z,101087.22
2017-10-07T12:00:00.948Z,101084.75
2017-10-07T12:02:32.719Z,101081.28
2017-10-07T12:05:04.708Z,101082.71
2017-10-07T12:07:37.041Z,101072.17
2017-10-07T12:10:09.125Z,101070.68
2017-10-07T12:12:41.331Z,101078.91
2017-10-07T12:15:12.784Z,101075.05
2017-10-07T12:17:44.107Z,101057.72
2017-10-07T12:20:15.198Z,101061.57
2017-10-07T12:22:46.363Z,101060.39
2017-10-07T12:25:17.582Z,101066.42
2017-10-07T12:27:49.148Z,101055.30
2017-10-07T12:30:20.513Z,101054.13
2017-10-07T12:32:53.320Z,101055.14
2017-10-07T12:38:31.779Z,101050.98
2017-10-07T12:41:03.781Z,101040.53
2017-10-07T12:43:35.012Z,101033.36
2017-10-07T12:46:06.529Z,101030.03
2017-10-07T12:48:38.362Z,101024.32
2017-10-07T12:51:09.950Z,101019.84
2017-10-07T12:53:43.779Z,101012.57
2017-10-07T12:56:15.700Z,101007.91
2017-10-07T12:58:47.656Z,101006.97
2017-10-07T13:01:19.439Z,101001.45
2017-10-07T13:03:51.506Z,100997.45
2017-10-07T13:06:24.674Z,100987.89
2017-10-07T13:08:56.113Z,100982.30
2017-10-07T13:11:28.141Z,100979.23
2017-10-07T13:13:59.452Z,100978.68
2017-10-07T13:16:30.686Z,100989.94
2017-10-07T13:19:03.736Z,100976.73
2017-10-07T13:21:35.124Z,100964.97
2017-10-07T13:24:07.131Z,100973.51
2017-10-07T13:26:40.344Z,100965.86
2017-10-07T13:29:11.986Z,100974.89
2017-10-07T13:31:46.232Z,100965.23
2017-10-07T13:34:18.744Z,100975.44
2017-10-07T13:36:51.658Z,100966.64
2017-10-07T13:39:24.146Z,100960.72
2017-10-07T13:41:57.380Z,100968.55
2017-10-07T13:44:28.921Z,100963.54
2017-10-07T13:47:00.771Z,100967.00
2017-10-07T13:49:33.785Z,100965.33
2017-10-07T13:52:07.023Z,100966.25
2017-10-07T13:54:41.504Z,100968.03
2017-10-07T13:57:12.928Z,100961.45
2017-10-07T13:59:46.071Z,100961.59
2017-10-07T14:02:20.705Z,100955.55
2017-10-07T14:04:52.320Z,100958.12
2017-10-07T14:07:23.658Z,100956.84
2017-10-07T14:09:56.308Z,100951.25
2017-10-07T14:12:27.829Z,100952.65
2017-10-07T14:14:59.660Z,100950.30
2017-10-07T14:17:31.276Z,100946.80
2017-10-07T14:20:04.656Z,100937.94
2017-10-07T14:22:36.289Z,100939.51
2017-10-07T14:25:07.800Z,100940.33
2017-10-07T14:27:42.323Z,100937.04
2017-10-07T14:30:13.785Z,100935.67
2017-10-07T14:32:44.829Z,100928.51
2017-10-07T14:35:25.786Z,100933.00
2017-10-07T14:38:07.917Z,100929.91
2017-10-07T14:40:47.820Z,100916.80
2017-10-07T14:43:37.270Z,100916.97
2017-10-07T14:46:09.762Z,100906.98
2017-10-07T14:48:42.716Z,100900.28
2017-10-07T14:51:14.039Z,100896.52
2017-10-07T14:53:45.114Z,100894.84
2017-10-07T14:56:16.329Z,100893.38
2017-10-07T14:58:51.210Z,100893.81
2017-10-07T15:01:26.589Z,100881.95
2017-10-07T15:04:17.455Z,100885.42
2017-10-07T15:06:48.612Z,100888.22
2017-10-07T15:12:19.436Z,100883.81
2017-10-07T15:14:50.553Z,100875.69
2017-10-07T15:17:26.144Z,100871.60
2017-10-07T15:19:58.065Z,100868.73
2017-10-07T15:22:30.534Z,100869.72
2017-10-07T15:25:06.377Z,100849.79
2017-10-07T15:27:38.822Z,100853.22
2017-10-07T15:30:11.839Z,100844.44
2017-10-07T15:32:43.218Z,100831.02
2017-10-07T15:35:14.339Z,100821.91
2017-10-07T15:37:45.420Z,100817.55
2017-10-07T15:43:25.466Z,100795.73
2017-10-07T15:46:09.535Z,100800.75
2017-10-07T15:48:46.150Z,100793.00
2017-10-07T15:51:19.074Z,100785.61
2017-10-07T15:53:51.638Z,100781.58
2017-10-07T15:56:29.695Z,100775.44
2017-10-07T15:59:02.870Z,100777.02
2017-10-07T16:01:34.237Z,100775.17
2017-10-07T16:04:14.082Z,100765.44
2017-10-07T16:06:45.631Z,100764.25
2017-10-07T16:09:17.279Z,100765.25
2017-10-07T16:11:48.725Z,100756.93
2017-10-07T16:14:26.491Z,100753.20
2017-10-07T16:17:00.074Z,100764.41
2017-10-07T16:19:35.576Z,100762.29
2017-10-07T16:22:08.512Z,100758.80
2017-10-07T16:24:40.127Z,100757.58
2017-10-07T16:27:12.571Z,100751.57
2017-10-07T16:29:46.522Z,100758.70
2017-10-07T16:32:19.426Z,100758.47
2017-10-07T16:34:51.633Z,100753.72
2017-10-07T16:37:31.863Z,100753.72
2017-10-07T16:40:08.735Z,100752.53
2017-10-07T16:42:40.506Z,100749.17
2017-10-07T16:45:12.277Z,100757.19
2017-10-07T16:47:44.371Z,100753.23
2017-10-07T16:50:17.980Z,100749.23
2017-10-07T16:52:49.992Z,100743.10
2017-10-07T16:58:26.875Z,100742.31
2017-10-07T17:00:58.635Z,100740.23
2017-10-07T17:03:41.025Z,100728.82
2017-10-07T17:12:36.572Z,100721.60
2017-10-07T17:18:26.500Z,100718.08
2017-10-07T17:20:59.681Z,100714.94
2017-10-07T17:23:31.420Z,100718.17
2017-10-07T17:26:03.625Z,100712.70
2017-10-07T17:28:34.828Z,100719.23
2017-10-07T17:31:08.189Z,100711.81
2017-10-07T17:33:42.346Z,100708.64
2017-10-07T17:36:16.399Z,100706.73
2017-10-07T17:38:49.643Z,100702.94
2017-10-07T17:41:20.985Z,100696.71
2017-10-07T17:46:36.878Z,100684.81
2017-10-07T17:49:09.797Z,100683.39
2017-10-07T17:54:46.578Z,100682.23
2017-10-07T17:57:36.870Z,100674.72
2017-10-07T18:00:09.884Z,100676.56
2017-10-07T18:02:51.061Z,100668.59
2017-10-07T18:05:26.589Z,100666.24
2017-10-07T18:08:03.623Z,100669.77
2017-10-07T18:10:41.271Z,100665.81
2017-10-07T18:13:14.347Z,100670.66
2017-10-07T18:15:47.869Z,100669.41
2017-10-07T18:18:21.395Z,100658.89
2017-10-07T18:20:56.571Z,100651.45
2017-10-07T18:23:35.645Z,100647.03
2017-10-07T18:26:08.553Z,100643.03
2017-10-07T18:28:40.250Z,100639.02
2017-10-07T18:31:12.124Z,100638.02
2017-10-07T18:33:44.627Z,100634.40
2017-10-07T18:36:15.772Z,100637.89
2017-10-07T18:38:47.191Z,100629.02
2017-10-07T18:41:18.346Z,100618.47
2017-10-07T18:43:51.278Z,100617.45
2017-10-07T18:46:23.056Z,100611.78
2017-10-07T18:48:59.581Z,100609.57
2017-10-07T18:51:31.245Z,100609.21
2017-10-07T18:54:03.775Z,100609.21
2017-10-07T18:56:36.758Z,100612.41
2017-10-07T18:59:08.633Z,100625.62
2017-10-07T19:01:41.429Z,100622.50
2017-10-07T19:04:12.715Z,100632.23
2017-10-07T19:06:46.783Z,100636.22
2017-10-07T19:09:21.047Z,100636.52
2017-10-07T19:11:58.310Z,100637.28
2017-10-07T19:14:34.295Z,100630.98
2017-10-07T19:17:18.421Z,100629.24
2017-10-07T19:19:51.974Z,100625.45
2017-10-07T19:22:23.481Z,100625.42
2017-10-07T19:24:54.859Z,100635.66
2017-10-07T19:27:26.165Z,100640.12
2017-10-07T19:29:58.414Z,100638.55
2017-10-07T19:32:29.582Z,100624.17
2017-10-07T19:35:01.203Z,100612.40
2017-10-07T19:37:33.934Z,100619.88
2017-10-07T19:40:07.469Z,100614.74
2017-10-07T19:49:33.237Z,100625.77
2017-10-07T19:55:04.032Z,100626.17
2017-10-07T19:57:41.286Z,100612.30
2017-10-07T20:00:15.625Z,100611.91
2017-10-07T20:02:48.357Z,100610.16
2017-10-07T20:05:20.736Z,100619.31
2017-10-07T20:07:52.945Z,100617.91
2017-10-07T20:10:26.107Z,100601.43
2017-10-07T20:13:06.624Z,100591.27
2017-10-07T20:15:41.346Z,100586.67
2017-10-07T20:18:14.412Z,100585.66
2017-10-07T20:20:50.434Z,100577.75
2017-10-07T20:23:28.597Z,100577.66
2017-10-07T20:26:04.511Z,100580.81
2017-10-07T20:28:51.890Z,100571.94
2017-10-07T20:31:31.047Z,100568.75
2017-10-07T20:34:20.229Z,100569.08
2017-10-07T20:37:01.896Z,100555.84
2017-10-07T20:39:44.234Z,100554.56
2017-10-07T20:42:18.801Z,100547.31
2017-10-07T20:44:56.237Z,100546.49
2017-10-07T20:47:29.407Z,100546.75
2017-10-07T20:50:06.096Z,100541.25
2017-10-07T20:52:44.277Z,100558.25
2017-10-07T20:55:20.104Z,100566.64
2017-10-07T20:57:53.955Z,100554.89
2017-10-07T21:00:28.527Z,100552.48
2017-10-07T21:03:01.142Z,100547.65
2017-10-07T21:05:34.422Z,100540.05
2017-10-07T21:08:07.060Z,100526.89
2017-10-07T21:10:41.820Z,100529.34
2017-10-07T21:13:13.884Z,100536.34
2017-10-07T21:15:46.926Z,100529.64
2017-10-07T21:18:19.337Z,100533.92
2017-10-07T21:20:58.125Z,100524.48
2017-10-07T21:23:29.604Z,100520.25
2017-10-07T21:26:01.221Z,100523.88
2017-10-07T21:28:33.171Z,100531.95
2017-10-07T21:31:06.585Z,100519.02
2017-10-07T21:33:43.067Z,100516.02
2017-10-07T21:36:14.438Z,100511.84
2017-10-07T21:38:46.351Z,100513.59
2017-10-07T21:41:17.555Z,100510.92
2017-10-07T21:43:48.743Z,100510.86
2017-10-07T21:46:20.827Z,100518.17
2017-10-07T21:48:51.939Z,100518.96
2017-10-07T21:51:24.147Z,100516.20
2017-10-07T21:53:55.177Z,100514.38
2017-10-07T21:56:27.453Z,100520.97
2017-10-07T21:58:58.565Z,100513.92
2017-10-07T22:01:30.047Z,100503.02
2017-10-07T22:04:03.761Z,100505.33
2017-10-07T22:06:34.834Z,100497.56
2017-10-07T22:09:06.279Z,100497.49
2017-10-07T22:11:45.838Z,100487.58
2017-10-07T22:14:29.314Z,100496.54
2017-10-07T22:17:01.314Z,100486.04
2017-10-07T22:19:33.197Z,100490.78
2017-10-07T22:22:11.752Z,100484.63
2017-10-07T22:24:42.913Z,100487.58
2017-10-07T22:27:14.164Z,100480.64
2017-10-07T22:29:45.221Z,100482.05
2017-10-07T22:32:17.251Z,100472.97
2017-10-07T22:34:48.342Z,100475.53
2017-10-07T22:37:19.715Z,100474.22
2017-10-07T22:39:50.848Z,100461.52
2017-10-07T22:42:22.316Z,100454.66
2017-10-07T22:44:53.752Z,100459.38
2017-10-07T22:47:27.359Z,100460.59
2017-10-07T22:49:58.431Z,100467.27
2017-10-07T22:52:30.326Z,100461.45
2017-10-07T22:55:01.808Z,100454.04
2017-10-07T22:57:32.864Z,100454.93
2017-10-07T23:00:08.479Z,100452.69
2017-10-07T23:02:39.520Z,100447.88
2017-10-07T23:05:10.606Z,100455.45
2017-10-07T23:07:41.956Z,100449.83
2017-10-07T23:10:15.158Z,100454.56
2017-10-07T23:12:46.183Z,100443.70
2017-10-07T23:15:17.504Z,100450.16
2017-10-07T23:17:48.595Z,100454.60
2017-10-07T23:20:21.686Z,100461.16
2017-10-07T23:22:53.195Z,100464.55
2017-10-07T23:25:25.125Z,100461.88
2017-10-07T23:27:56.138Z,100452.27
2017-10-07T23:30:28.908Z,100451.41
2017-10-07T23:32:59.948Z,100443.02
2017-10-07T23:35:30.993Z,100436.89
2017-10-07T23:38:03.332Z,100435.17
2017-10-07T23:40:34.529Z,100436.99
2017-10-07T23:43:05.546Z,100437.13
2017-10-07T23:45:37.392Z,100423.56
2017-10-07T23:48:12.821Z,100416.52
2017-10-07T23:50:43.865Z,100413.09
2017-10-07T23:53:14.884Z,100402.17
2017-10-07T23:55:45.926Z,100416.36
2017-10-07T23:58:17.003Z,100411.98
